createdAt,value
2018-01-21T00:00:23.122Z,27.77
2018-01-21T00:02:55.802Z,32.77
2018-01-21T00:05:24.002Z,29.53
2018-01-21T00:07:57.446Z,26.53
2018-01-21T00:10:27.416Z,27.87
2018-01-21T00:12:55.547Z,34.30
2018-01-21T00:19:56.230Z,28.20
2018-01-21T00:25:24.033Z,28.03
2018-01-21T00:27:53.137Z,26.97
2018-01-21T00:30:44.595Z,24.20
2018-01-21T00:33:12.701Z,31.00
2018-01-21T00:35:40.854Z,24.60
2018-01-21T00:38:12.188Z,28.50
2018-01-21T00:40:40.387Z,26.97
2018-01-21T00:46:03.895Z,28.90
2018-01-21T00:48:32.994Z,30.27
2018-01-21T00:51:06.196Z,24.33
2018-01-21T00:53:38.049Z,28.37
2018-01-21T00:56:06.161Z,30.07
2018-01-21T00:58:41.464Z,30.20
2018-01-21T01:01:10.554Z,28.80
2018-01-21T01:03:44.564Z,29.50
2018-01-21T01:06:12.674Z,28.00
2018-01-21T01:08:41.595Z,36.80
2018-01-21T01:11:10.609Z,28.93
2018-01-21T01:13:38.726Z,30.27
2018-01-21T01:16:06.826Z,31.50
2018-01-21T01:18:34.921Z,30.47
2018-01-21T01:21:05.016Z,33.57
2018-01-21T01:23:34.134Z,30.77
2018-01-21T01:26:05.608Z,28.00
2018-01-21T01:28:33.716Z,29.00
2018-01-21T01:31:21.444Z,27.77
2018-01-21T01:33:52.752Z,26.80
2018-01-21T01:36:27.116Z,28.90
2018-01-21T01:39:02.921Z,32.20
2018-01-21T01:41:33.760Z,29.17
2018-01-21T01:44:19.332Z,30.33
2018-01-21T01:46:47.502Z,31.60
2018-01-21T01:52:11.484Z,31.27
2018-01-21T01:54:54.094Z,30.43
2018-01-21T01:57:22.258Z,33.13
2018-01-21T01:59:53.607Z,31.33
2018-01-21T02:02:23.704Z,33.73
2018-01-21T02:04:56.004Z,42.00
2018-01-21T02:07:24.121Z,34.30
2018-01-21T02:09:54.111Z,35.00
2018-01-21T02:12:30.061Z,34.70
2018-01-21T02:15:10.555Z,35.00
2018-01-21T02:17:38.654Z,35.47
2018-01-21T02:20:18.158Z,31.43
2018-01-21T02:22:46.276Z,34.00
2018-01-21T02:25:16.313Z,40.33
2018-01-21T02:27:44.425Z,31.33
2018-01-21T02:30:20.032Z,30.93
2018-01-21T02:32:50.537Z,30.80
2018-01-21T02:35:18.724Z,28.80
2018-01-21T02:37:46.870Z,31.53
2018-01-21T02:40:15.969Z,31.10
2018-01-21T02:42:47.218Z,30.10
2018-01-21T02:45:15.339Z,30.97
2018-01-21T02:47:56.583Z,31.63
2018-01-21T02:50:25.605Z,31.70
2018-01-21T02:53:01.336Z,30.83
2018-01-21T02:55:31.404Z,27.30
2018-01-21T02:58:12.745Z,27.37
2018-01-21T03:00:41.902Z,28.10
2018-01-21T03:03:10.034Z,28.20
2018-01-21T03:05:49.349Z,27.17
2018-01-21T03:08:17.440Z,24.97
2018-01-21T03:10:53.860Z,22.40
2018-01-21T03:13:23.705Z,24.10
2018-01-21T03:16:01.604Z,24.83
2018-01-21T03:18:37.373Z,29.77
2018-01-21T03:21:06.424Z,24.60
2018-01-21T03:23:36.446Z,28.40
2018-01-21T03:26:06.474Z,25.37
2018-01-21T03:28:38.849Z,25.90
2018-01-21T03:31:07.890Z,25.57
2018-01-21T03:33:41.356Z,25.50
2018-01-21T03:36:10.371Z,24.27
2018-01-21T03:38:41.508Z,27.87
2018-01-21T03:41:11.579Z,28.03
2018-01-21T03:43:41.588Z,25.47
2018-01-21T03:46:11.620Z,25.57
2018-01-21T03:48:43.180Z,27.50
2018-01-21T03:51:11.281Z,27.03
2018-01-21T03:53:42.723Z,25.37
2018-01-21T03:56:12.775Z,25.80
2018-01-21T03:58:47.880Z,22.73
2018-01-21T04:01:16.024Z,24.57
2018-01-21T04:03:46.187Z,27.13
2018-01-21T04:06:16.277Z,23.57
2018-01-21T04:08:56.721Z,24.83
2018-01-21T04:11:25.852Z,24.63
2018-01-21T04:13:55.877Z,25.00
2018-01-21T04:16:25.098Z,29.57
2018-01-21T04:18:53.197Z,25.87
2018-01-21T04:21:23.302Z,24.03
2018-01-21T04:23:51.426Z,26.70
2018-01-21T04:26:37.464Z,23.00
2018-01-21T04:29:08.743Z,24.47
2018-01-21T04:31:37.632Z,26.60
2018-01-21T04:34:13.893Z,28.30
2018-01-21T04:36:42.765Z,24.33
2018-01-21T04:39:10.906Z,27.40
2018-01-21T04:42:02.297Z,28.77
2018-01-21T04:44:30.404Z,27.93
2018-01-21T04:46:59.494Z,28.20
2018-01-21T04:49:28.402Z,27.07
2018-01-21T04:51:56.527Z,27.10
2018-01-21T04:54:30.329Z,26.30
2018-01-21T04:57:04.380Z,24.83
2018-01-21T04:59:38.076Z,26.50
2018-01-21T05:02:08.133Z,29.30
2018-01-21T05:04:39.364Z,30.10
2018-01-21T05:07:07.488Z,27.33
2018-01-21T05:09:39.336Z,26.70
2018-01-21T05:12:07.441Z,29.77
2018-01-21T05:14:37.556Z,34.10
2018-01-21T05:17:06.634Z,31.20
2018-01-21T05:19:35.672Z,36.03
2018-01-21T05:22:14.669Z,34.67
2018-01-21T05:24:43.717Z,39.53
2018-01-21T05:27:11.848Z,39.90
2018-01-21T05:29:39.967Z,39.80
2018-01-21T05:32:08.151Z,47.93
2018-01-21T05:34:39.716Z,42.00
2018-01-21T05:37:07.825Z,47.10
2018-01-21T05:39:36.913Z,42.33
2018-01-21T05:42:06.008Z,47.00
2018-01-21T05:44:35.117Z,44.70
2018-01-21T05:47:10.040Z,42.00
2018-01-21T05:49:50.533Z,45.00
2018-01-21T05:52:18.662Z,40.23
2018-01-21T05:54:48.897Z,48.90
2018-01-21T05:57:27.252Z,42.30
2018-01-21T06:00:06.016Z,43.67
2018-01-21T06:02:35.020Z,37.40
2018-01-21T06:05:03.139Z,39.93
2018-01-21T06:07:31.253Z,43.67
2018-01-21T06:10:05.908Z,38.80
2018-01-21T06:12:34.085Z,35.63
2018-01-21T06:15:03.959Z,40.63
2018-01-21T06:17:32.060Z,40.87
2018-01-21T06:20:00.180Z,56.20
2018-01-21T06:22:29.061Z,56.97
2018-01-21T06:25:01.520Z,100.73
2018-01-21T06:27:35.235Z,41.40
2018-01-21T06:30:03.343Z,107.20
2018-01-21T06:32:36.030Z,80.70
2018-01-21T06:35:15.212Z,107.40
2018-01-21T06:37:50.965Z,111.23
2018-01-21T06:40:19.096Z,160.33
2018-01-21T06:42:49.132Z,88.80
2018-01-21T06:45:18.239Z,69.33
2018-01-21T06:47:46.377Z,156.53
2018-01-21T06:50:19.842Z,196.53
2018-01-21T06:52:47.978Z,79.30
2018-01-21T06:55:20.705Z,71.87
2018-01-21T06:57:49.636Z,109.43
2018-01-21T07:00:18.713Z,99.37
2018-01-21T07:02:46.818Z,85.67
2018-01-21T07:05:18.460Z,174.03
2018-01-21T07:07:47.634Z,88.83
2018-01-21T07:10:17.528Z,108.23
2018-01-21T07:12:45.944Z,112.30
2018-01-21T07:15:15.007Z,76.57
2018-01-21T07:17:59.809Z,122.93
2018-01-21T07:20:33.790Z,120.30
2018-01-21T07:23:01.905Z,78.67
2018-01-21T07:25:31.037Z,152.77
2018-01-21T07:28:04.418Z,120.93
2018-01-21T07:30:33.509Z,107.80
2018-01-21T07:33:16.322Z,98.27
2018-01-21T07:35:54.025Z,119.60
2018-01-21T07:38:28.013Z,72.90
2018-01-21T07:40:58.197Z,84.00
2018-01-21T07:43:26.506Z,67.33
2018-01-21T07:45:54.601Z,80.10
2018-01-21T07:48:23.678Z,87.97
2018-01-21T07:50:59.472Z,61.83
2018-01-21T07:53:27.629Z,104.90
2018-01-21T07:55:59.362Z,57.33
2018-01-21T07:58:39.632Z,105.27
2018-01-21T08:01:09.480Z,43.63
2018-01-21T08:03:50.171Z,137.47
2018-01-21T08:06:24.212Z,64.47
2018-01-21T08:08:55.881Z,64.83
2018-01-21T08:11:24.984Z,222.30
2018-01-21T08:13:53.110Z,62.03
2018-01-21T08:16:31.774Z,184.27
2018-01-21T08:18:59.892Z,85.73
2018-01-21T08:21:38.300Z,117.13
2018-01-21T08:24:06.431Z,139.83
2018-01-21T08:26:36.536Z,63.07
2018-01-21T08:29:05.638Z,97.37
2018-01-21T08:31:38.044Z,61.20
2018-01-21T08:34:15.677Z,83.87
2018-01-21T08:36:51.156Z,88.80
2018-01-21T08:43:04.013Z,52.80
2018-01-21T08:45:34.849Z,61.70
2018-01-21T08:48:07.386Z,60.53
2018-01-21T08:50:35.510Z,49.70
2018-01-21T08:53:05.620Z,75.33
2018-01-21T08:55:33.754Z,45.67
2018-01-21T08:58:19.344Z,58.50
2018-01-21T09:00:51.861Z,49.57
2018-01-21T09:03:20.022Z,47.33
2018-01-21T09:05:48.159Z,66.07
2018-01-21T09:08:27.244Z,54.17
2018-01-21T09:11:14.668Z,42.57
2018-01-21T09:13:43.738Z,47.30
2018-01-21T09:16:12.005Z,97.27
2018-01-21T09:18:40.158Z,78.47
2018-01-21T09:21:09.053Z,68.03
2018-01-21T09:23:42.318Z,93.23
2018-01-21T09:26:10.472Z,85.33
2018-01-21T09:28:46.699Z,55.60
2018-01-21T09:31:14.824Z,36.40
2018-01-21T09:33:42.953Z,35.83
2018-01-21T09:36:11.104Z,52.10
2018-01-21T09:38:39.266Z,59.80
2018-01-21T09:41:16.366Z,35.70
2018-01-21T09:43:44.530Z,39.90
2018-01-21T09:46:12.694Z,30.80
2018-01-21T09:48:40.813Z,57.50
2018-01-21T09:51:19.465Z,142.37
2018-01-21T09:53:47.592Z,56.13
2018-01-21T09:56:15.733Z,49.37
2018-01-21T09:58:47.374Z,42.03
2018-01-21T10:01:15.565Z,52.77
2018-01-21T10:03:59.629Z,37.30
2018-01-21T10:06:28.540Z,39.83
2018-01-21T10:08:58.420Z,93.07
2018-01-21T10:11:26.613Z,42.07
2018-01-21T10:13:54.772Z,34.50
2018-01-21T10:16:22.912Z,43.00
2018-01-21T10:18:51.836Z,48.33
2018-01-21T10:21:20.942Z,32.93
2018-01-21T10:23:50.006Z,101.00
2018-01-21T10:26:21.757Z,31.57
2018-01-21T10:28:50.929Z,25.43
2018-01-21T10:31:20.014Z,33.37
2018-01-21T10:33:48.112Z,31.90
2018-01-21T10:36:18.970Z,33.40
2018-01-21T10:38:55.493Z,33.07
2018-01-21T10:41:25.601Z,30.60
2018-01-21T10:43:53.729Z,39.33
2018-01-21T10:46:22.044Z,73.47
2018-01-21T10:48:53.054Z,45.77
2018-01-21T10:51:26.653Z,21.87
2018-01-21T10:54:01.533Z,28.30
2018-01-21T10:56:34.905Z,19.50
2018-01-21T10:59:14.573Z,30.63
2018-01-21T11:01:42.803Z,31.00
2018-01-21T11:04:11.702Z,36.70
2018-01-21T11:06:44.118Z,32.23
2018-01-21T11:09:18.512Z,32.73
2018-01-21T11:11:50.077Z,24.03
2018-01-21T11:14:19.159Z,28.67
2018-01-21T11:16:48.035Z,87.83
2018-01-21T11:19:16.125Z,29.30
2018-01-21T11:21:45.228Z,100.80
2018-01-21T11:24:19.209Z,30.17
2018-01-21T11:26:47.294Z,37.03
2018-01-21T11:29:16.412Z,35.57
2018-01-21T11:31:44.603Z,37.10
2018-01-21T11:34:14.647Z,31.93
2018-01-21T11:36:42.864Z,77.60
2018-01-21T11:39:11.123Z,55.33
2018-01-21T11:41:40.962Z,28.33
2018-01-21T11:44:16.711Z,34.10
2018-01-21T11:46:44.941Z,31.13
2018-01-21T11:49:13.139Z,29.83
2018-01-21T11:51:43.334Z,26.80
2018-01-21T11:54:12.500Z,31.27
2018-01-21T11:56:41.414Z,29.47
2018-01-21T11:59:09.554Z,30.60
2018-01-21T12:01:41.485Z,29.13
2018-01-21T12:04:10.712Z,34.13
2018-01-21T12:06:44.154Z,28.93
2018-01-21T12:09:12.316Z,23.10
2018-01-21T12:11:40.479Z,23.90
2018-01-21T12:14:08.633Z,26.10
2018-01-21T12:16:37.704Z,26.63
2018-01-21T12:19:05.828Z,19.70
2018-01-21T12:21:37.844Z,19.20
2018-01-21T12:24:06.970Z,24.83
2018-01-21T12:26:37.104Z,17.20
2018-01-21T12:29:05.243Z,16.80
2018-01-21T12:31:34.157Z,16.83
2018-01-21T12:34:04.166Z,18.20
2018-01-21T12:36:35.210Z,27.30
2018-01-21T12:39:03.339Z,34.53
2018-01-21T12:41:36.385Z,33.80
2018-01-21T12:44:04.526Z,25.20
2018-01-21T12:46:35.761Z,28.27
2018-01-21T12:49:15.348Z,27.93
2018-01-21T12:51:43.809Z,23.13
2018-01-21T12:54:28.824Z,32.93
2018-01-21T12:56:59.281Z,24.20
2018-01-21T12:59:27.409Z,35.60
2018-01-21T13:01:56.336Z,24.60
2018-01-21T13:04:26.654Z,25.73
2018-01-21T13:06:58.107Z,31.87
2018-01-21T13:09:27.400Z,23.13
2018-01-21T13:11:56.302Z,31.67
2018-01-21T13:14:25.421Z,25.10
2018-01-21T13:16:54.490Z,26.17
2018-01-21T13:19:23.392Z,34.03
2018-01-21T13:21:52.502Z,18.67
2018-01-21T13:24:22.317Z,24.00
2018-01-21T13:26:55.954Z,20.20
2018-01-21T13:29:24.169Z,24.60
2018-01-21T13:31:53.248Z,36.37
2018-01-21T13:34:22.506Z,22.73
2018-01-21T13:36:51.651Z,21.97
2018-01-21T13:39:19.767Z,16.00
2018-01-21T13:41:52.118Z,20.37
2018-01-21T13:44:21.226Z,17.80
2018-01-21T13:46:50.333Z,14.47
2018-01-21T13:49:26.659Z,17.83
2018-01-21T13:51:54.800Z,19.80
2018-01-21T13:54:27.522Z,19.00
2018-01-21T13:57:01.401Z,21.13
2018-01-21T13:59:40.305Z,23.70
2018-01-21T14:02:08.469Z,22.27
2018-01-21T14:04:37.410Z,16.13
2018-01-21T14:07:07.470Z,14.00
2018-01-21T14:09:36.610Z,22.77
2018-01-21T14:12:08.179Z,19.23
2018-01-21T14:14:37.346Z,19.80
2018-01-21T14:17:05.482Z,18.43
2018-01-21T14:19:33.597Z,19.53
2018-01-21T14:22:02.302Z,26.40
2018-01-21T14:24:31.437Z,18.57
2018-01-21T14:27:03.286Z,19.73
2018-01-21T14:29:32.615Z,21.27
2018-01-21T14:32:01.766Z,21.70
2018-01-21T14:34:34.753Z,23.03
2018-01-21T14:37:02.882Z,19.77
2018-01-21T14:39:32.002Z,23.37
2018-01-21T14:42:10.161Z,26.50
2018-01-21T14:44:43.845Z,20.57
2018-01-21T14:47:13.929Z,26.57
2018-01-21T14:49:55.914Z,24.37
2018-01-21T14:55:29.194Z,20.20
2018-01-21T14:57:58.098Z,34.57
2018-01-21T15:00:28.485Z,26.97
2018-01-21T15:05:55.657Z,24.97
2018-01-21T15:08:23.886Z,27.90
2018-01-21T15:10:59.580Z,42.90
2018-01-21T15:13:28.598Z,43.63
2018-01-21T15:15:58.772Z,46.87
2018-01-21T15:18:58.764Z,39.30
2018-01-21T15:21:39.402Z,30.10
2018-01-21T15:27:05.048Z,37.83
2018-01-21T15:29:35.250Z,29.43
2018-01-21T15:32:09.165Z,33.53
2018-01-21T15:34:37.276Z,27.87
2018-01-21T15:37:05.419Z,30.30
2018-01-21T15:39:33.594Z,29.50
2018-01-21T15:42:05.383Z,24.93
2018-01-21T15:44:33.498Z,20.97
2018-01-21T15:47:01.664Z,40.40
2018-01-21T15:49:40.317Z,29.30
2018-01-21T15:52:13.337Z,24.07
2018-01-21T15:54:55.468Z,29.47
2018-01-21T16:00:23.119Z,30.90
2018-01-21T16:02:51.280Z,28.93
2018-01-21T16:05:20.397Z,28.33
2018-01-21T16:07:48.441Z,31.60
2018-01-21T16:10:16.539Z,30.67
2018-01-21T16:12:57.836Z,29.23
2018-01-21T16:15:40.312Z,25.37
2018-01-21T16:18:08.423Z,29.87
2018-01-21T16:20:37.507Z,30.97
2018-01-21T16:23:05.626Z,24.47
2018-01-21T16:25:34.549Z,44.00
2018-01-21T16:28:03.588Z,35.37
2018-01-21T16:30:31.706Z,25.33
2018-01-21T16:32:59.834Z,33.67
2018-01-21T16:35:31.855Z,34.07
2018-01-21T16:38:13.849Z,29.83
2018-01-21T16:40:42.980Z,27.83
2018-01-21T16:43:14.260Z,27.57
2018-01-21T16:45:44.116Z,30.17
2018-01-21T16:48:15.729Z,25.67
2018-01-21T16:50:47.348Z,25.30
2018-01-21T16:53:17.552Z,26.20
2018-01-21T16:55:47.542Z,20.73
2018-01-21T16:58:16.636Z,24.07
2018-01-21T17:00:45.273Z,25.07
2018-01-21T17:03:14.169Z,23.17
2018-01-21T17:05:45.096Z,25.03
2018-01-21T17:08:19.718Z,22.43
2018-01-21T17:10:48.721Z,22.70
2018-01-21T17:13:18.790Z,23.50
2018-01-21T17:15:53.224Z,22.73
2018-01-21T17:18:26.294Z,23.30
2018-01-21T17:20:54.381Z,19.53
2018-01-21T17:23:22.547Z,21.10
2018-01-21T17:25:50.685Z,19.87
2018-01-21T17:28:20.557Z,20.27
2018-01-21T17:30:49.559Z,22.60
2018-01-21T17:33:18.709Z,19.40
2018-01-21T17:35:46.834Z,18.20
2018-01-21T17:38:18.188Z,21.40
2018-01-21T17:40:52.153Z,19.53
2018-01-21T17:43:26.945Z,18.20
2018-01-21T17:45:55.093Z,18.60
2018-01-21T17:48:24.275Z,19.10
2018-01-21T17:50:53.319Z,18.00
2018-01-21T17:53:22.439Z,20.97
2018-01-21T17:55:51.003Z,23.20
2018-01-21T17:58:20.108Z,19.63
2018-01-21T18:00:50.143Z,23.00
2018-01-21T18:03:18.317Z,21.50
2018-01-21T18:05:46.482Z,22.73
2018-01-21T18:08:15.371Z,21.13
2018-01-21T18:10:45.478Z,22.10
2018-01-21T18:13:19.241Z,18.83
2018-01-21T18:15:57.908Z,18.93
2018-01-21T18:18:26.005Z,19.43
2018-01-21T18:20:57.661Z,23.10
2018-01-21T18:23:25.832Z,22.47
2018-01-21T18:25:55.865Z,17.30
2018-01-21T18:28:23.981Z,19.70
2018-01-21T18:30:53.048Z,18.27
2018-01-21T18:33:27.064Z,24.03
2018-01-21T18:35:55.279Z,20.10
2018-01-21T18:38:27.654Z,17.27
2018-01-21T18:40:56.795Z,17.30
2018-01-21T18:43:26.713Z,14.67
2018-01-21T18:45:55.605Z,21.20
2018-01-21T18:48:23.709Z,16.20
2018-01-21T18:50:54.817Z,17.40
2018-01-21T18:53:24.915Z,19.27
2018-01-21T18:55:53.054Z,18.30
2018-01-21T18:58:38.483Z,17.77
2018-01-21T19:01:07.374Z,17.73
2018-01-21T19:03:35.503Z,20.87
2018-01-21T19:06:03.626Z,20.20
2018-01-21T19:08:42.602Z,20.67
2018-01-21T19:11:11.691Z,18.57
2018-01-21T19:13:55.940Z,19.60
2018-01-21T19:16:25.027Z,19.50
2018-01-21T19:19:11.441Z,20.13
2018-01-21T19:21:39.899Z,21.80
2018-01-21T19:24:07.992Z,19.13
2018-01-21T19:26:36.138Z,19.97
2018-01-21T19:29:05.020Z,20.33
2018-01-21T19:31:36.157Z,24.17
2018-01-21T19:37:05.333Z,22.00
2018-01-21T19:39:40.201Z,20.00
2018-01-21T19:42:26.880Z,29.77
2018-01-21T19:44:58.664Z,21.60
2018-01-21T19:47:26.882Z,19.40
2018-01-21T19:50:02.548Z,23.40
2018-01-21T19:52:48.623Z,25.00
2018-01-21T19:55:20.962Z,18.47
2018-01-21T19:57:49.112Z,23.87
2018-01-21T20:00:23.740Z,19.07
2018-01-21T20:02:54.555Z,20.40
2018-01-21T20:05:22.699Z,21.43
2018-01-21T20:07:50.896Z,22.43
2018-01-21T20:10:19.925Z,23.50
2018-01-21T20:12:54.874Z,23.03
2018-01-21T20:15:23.946Z,26.60
2018-01-21T20:17:54.055Z,24.97
2018-01-21T20:20:28.789Z,25.20
2018-01-21T20:22:58.695Z,23.87
2018-01-21T20:25:29.865Z,20.80
2018-01-21T20:27:58.944Z,21.70
2018-01-21T20:30:27.845Z,25.57
2018-01-21T20:32:56.926Z,22.73
2018-01-21T20:35:31.428Z,22.67
2018-01-21T20:37:59.532Z,22.10
2018-01-21T20:40:28.536Z,27.00
2018-01-21T20:42:57.625Z,24.87
2018-01-21T20:45:30.853Z,24.53
2018-01-21T20:47:58.900Z,27.27
2018-01-21T20:50:27.785Z,25.93
2018-01-21T20:52:56.864Z,26.03
2018-01-21T20:55:24.955Z,28.00
2018-01-21T20:57:53.093Z,25.53
2018-01-21T21:00:21.199Z,24.67
2018-01-21T21:02:53.189Z,26.80
2018-01-21T21:05:27.229Z,28.97
2018-01-21T21:07:55.328Z,24.77
2018-01-21T21:10:28.066Z,28.83
2018-01-21T21:12:57.605Z,24.90
2018-01-21T21:15:27.669Z,29.40
2018-01-21T21:17:55.736Z,31.10
2018-01-21T21:20:24.873Z,23.63
2018-01-21T21:22:56.384Z,25.40
2018-01-21T21:25:28.200Z,27.37
2018-01-21T21:27:56.318Z,25.03
2018-01-21T21:30:25.345Z,31.50
2018-01-21T21:32:59.793Z,24.53
2018-01-21T21:35:27.975Z,22.37
2018-01-21T21:37:56.111Z,29.50
2018-01-21T21:40:24.246Z,23.23
2018-01-21T21:42:52.424Z,22.97
2018-01-21T21:45:22.433Z,20.87
2018-01-21T21:50:46.145Z,23.53
2018-01-21T21:53:14.241Z,20.73
2018-01-21T21:55:48.592Z,22.10
2018-01-21T21:58:16.705Z,20.30
2018-01-21T22:00:50.609Z,21.73
2018-01-21T22:03:20.732Z,24.10
2018-01-21T22:06:05.354Z,19.53
2018-01-21T22:08:36.159Z,23.03
2018-01-21T22:11:12.321Z,22.20
2018-01-21T22:13:40.445Z,19.30
2018-01-21T22:16:13.707Z,27.27
2018-01-21T22:18:42.605Z,23.70
2018-01-21T22:21:26.324Z,24.67
2018-01-21T22:24:01.009Z,22.60
2018-01-21T22:29:25.118Z,25.07
2018-01-21T22:34:52.831Z,20.17
2018-01-21T22:37:21.932Z,20.57
2018-01-21T22:39:50.093Z,22.70
2018-01-21T22:42:19.999Z,23.93
2018-01-21T22:44:59.130Z,19.77
2018-01-21T22:47:35.869Z,25.50
2018-01-21T22:50:03.973Z,21.90
2018-01-21T22:52:35.746Z,22.13
2018-01-21T22:55:09.013Z,22.50
2018-01-21T22:57:46.364Z,20.37
2018-01-21T23:00:14.486Z,17.70
2018-01-21T23:02:43.393Z,16.83
2018-01-21T23:05:12.469Z,17.33
2018-01-21T23:07:41.582Z,17.23
2018-01-21T23:10:13.603Z,21.07
2018-01-21T23:12:41.724Z,20.77
2018-01-21T23:15:13.484Z,22.50
2018-01-21T23:17:43.192Z,22.53
2018-01-21T23:20:11.315Z,20.43
2018-01-21T23:23:00.324Z,20.03
2018-01-21T23:25:29.407Z,28.10
2018-01-21T23:27:58.464Z,23.33
2018-01-21T23:30:26.601Z,21.07
2018-01-21T23:32:55.649Z,19.10
2018-01-21T23:35:23.780Z,20.40
2018-01-21T23:38:00.501Z,20.50
2018-01-21T23:40:28.612Z,20.90
2018-01-21T23:42:57.633Z,23.97
2018-01-21T23:45:26.745Z,19.47
2018-01-21T23:48:01.284Z,20.40
2018-01-21T23:50:29.397Z,23.30
2018-01-21T23:52:57.510Z,25.60
2018-01-21T23:55:25.632Z,29.10
2018-01-21T23:57:53.750Z,27.53
